Time;durP1;ratioP1;P1;durP2;ratioP2;P2;SDS_P1;SDS_P2;PMS_P1;PMS_P2;Temp;Humidity;BMP_temperature;BMP_pressure;BME280_temperature;BME280_humidity;BME280_pressure;Samples;Min_cycle;Max_cycle;Signal;HPM_P1;HPM_P2
2021/10/09 00:00:54;;;;;;;29.08;21.58;;;10.50;98.40;;;;;;5024687;28;20395;-60
2021/10/09 00:03:21;;;;;;;27.63;20.13;;;10.50;98.40;;;;;;5023199;28;20080;-60
2021/10/09 00:05:48;;;;;;;18.38;14.45;;;10.50;98.50;;;;;;5023563;28;20077;-61
2021/10/09 00:08:15;;;;;;;18.02;14.05;;;10.50;98.50;;;;;;5023384;28;20416;-61
2021/10/09 00:10:42;;;;;;;21.33;16.25;;;10.50;97.80;;;;;;5023511;28;20635;-60
2021/10/09 00:13:09;;;;;;;25.77;18.65;;;10.60;98.30;;;;;;5023537;28;20081;-60
2021/10/09 00:15:36;;;;;;;27.67;20.02;;;10.60;98.80;;;;;;5023929;28;20541;-60
2021/10/09 00:18:03;;;;;;;31.52;21.00;;;10.60;98.70;;;;;;5023748;28;20129;-61
2021/10/09 00:20:31;;;;;;;36.95;20.75;;;10.70;99.10;;;;;;5023457;28;20113;-61
2021/10/09 00:22:58;;;;;;;26.50;18.90;;;10.80;98.90;;;;;;5023971;28;20156;-61
2021/10/09 00:25:25;;;;;;;26.95;19.75;;;10.80;98.90;;;;;;5022631;28;20366;-60
2021/10/09 00:27:52;;;;;;;30.98;21.42;;;10.90;98.90;;;;;;5023771;28;20125;-60
2021/10/09 00:30:18;;;;;;;32.35;22.17;;;11.00;99.10;;;;;;5022588;28;20119;-61
2021/10/09 00:32:45;;;;;;;50.63;24.55;;;11.00;99.10;;;;;;5022742;28;20103;-59
2021/10/09 00:35:12;;;;;;;51.83;28.50;;;11.10;99.10;;;;;;5023372;28;20053;-61
2021/10/09 00:37:39;;;;;;;43.03;25.52;;;11.10;99.20;;;;;;5023559;28;20132;-60
2021/10/09 00:40:06;;;;;;;52.90;28.00;;;11.20;99.40;;;;;;5023207;28;20060;-61
2021/10/09 00:42:33;;;;;;;90.40;30.08;;;11.30;99.40;;;;;;5022948;28;20080;-61
2021/10/09 00:45:00;;;;;;;83.00;31.90;;;11.30;99.50;;;;;;5022922;28;20088;-61
2021/10/09 00:47:26;;;;;;;100.30;34.80;;;11.30;99.70;;;;;;5023043;28;20049;-60
2021/10/09 00:49:53;;;;;;;103.68;33.97;;;11.40;99.90;;;;;;5023015;28;20073;-61
2021/10/09 00:52:20;;;;;;;107.25;37.40;;;11.40;99.90;;;;;;5023222;28;20123;-61
2021/10/09 00:54:47;;;;;;;153.05;33.75;;;11.40;99.90;;;;;;5023385;28;20050;-60
2021/10/09 00:57:16;;;;;;;83.68;32.92;;;11.50;99.90;;;;;;5022600;28;20085;-61
2021/10/09 00:59:43;;;;;;;88.82;31.92;;;11.50;99.90;;;;;;5021169;28;20145;-61
2021/10/09 01:02:10;;;;;;;186.75;32.67;;;11.60;99.90;;;;;;5022400;28;20453;-61
2021/10/09 01:04:37;;;;;;;108.10;28.88;;;11.60;99.90;;;;;;5023275;28;20060;-60
2021/10/09 01:07:04;;;;;;;109.68;25.08;;;11.70;99.90;;;;;;5022829;28;20124;-61
2021/10/09 01:09:32;;;;;;;143.75;26.85;;;11.70;99.90;;;;;;5022818;28;20093;-60
2021/10/09 01:11:59;;;;;;;131.60;25.15;;;11.70;99.90;;;;;;5022207;28;20053;-60
2021/10/09 01:14:26;;;;;;;112.88;23.92;;;11.70;99.90;;;;;;5022624;28;20080;-61
2021/10/09 01:16:53;;;;;;;86.13;22.58;;;11.80;99.90;;;;;;5021657;28;20128;-60
2021/10/09 01:19:20;;;;;;;85.25;21.92;;;11.70;99.90;;;;;;5022875;28;20081;-60
2021/10/09 01:21:48;;;;;;;107.63;20.38;;;11.80;99.90;;;;;;5022929;28;20089;-61
2021/10/09 01:24:15;;;;;;;81.97;20.65;;;11.80;99.90;;;;;;5022799;28;20177;-60
2021/10/09 01:26:42;;;;;;;110.00;21.20;;;11.80;99.90;;;;;;5022698;28;20092;-60
2021/10/09 01:29:10;;;;;;;120.47;20.58;;;11.80;99.90;;;;;;5022121;28;20052;-60
2021/10/09 01:31:37;;;;;;;91.95;20.30;;;11.80;99.90;;;;;;5022020;28;20132;-61
2021/10/09 01:34:04;;;;;;;52.17;20.23;;;11.80;99.90;;;;;;5024335;28;20054;-60
2021/10/09 01:36:39;;;;;;;121.45;21.92;;;11.80;99.90;;;;;;5024724;28;20088;-61
2021/10/09 01:39:07;;;;;;;60.72;18.85;;;11.80;99.90;;;;;;5024696;28;20690;-60
2021/10/09 01:41:54;;;;;;;84.28;20.00;;;11.80;99.90;;;;;;5024030;28;20637;-61
2021/10/09 01:44:20;;;;;;;59.95;18.88;;;11.70;99.90;;;;;;5023206;28;20088;-60
2021/10/09 01:46:47;;;;;;;65.97;17.90;;;11.70;99.90;;;;;;5024066;28;20103;-60
2021/10/09 01:49:14;;;;;;;48.55;17.00;;;11.70;99.90;;;;;;5024766;28;20124;-60
2021/10/09 01:51:41;;;;;;;39.95;15.88;;;11.70;99.90;;;;;;5023715;28;20684;-60
2021/10/09 01:54:08;;;;;;;55.15;16.13;;;11.70;99.90;;;;;;5024805;28;20081;-61
2021/10/09 01:56:34;;;;;;;59.88;15.52;;;11.70;99.90;;;;;;5024215;28;20132;-61
2021/10/09 01:59:01;;;;;;;69.97;15.77;;;11.70;99.90;;;;;;5023678;28;20088;-60
2021/10/09 02:01:28;;;;;;;65.20;15.88;;;11.70;99.90;;;;;;5024095;28;20128;-61
2021/10/09 02:03:55;;;;;;;59.50;14.55;;;11.70;99.90;;;;;;5023915;28;20653;-60
2021/10/09 02:06:22;;;;;;;76.10;13.70;;;11.70;99.80;;;;;;5023957;28;20085;-60
2021/10/09 02:08:52;;;;;;;41.88;14.63;;;11.70;99.90;;;;;;5024172;28;20049;-61
2021/10/09 02:11:21;;;;;;;54.50;14.27;;;11.70;99.90;;;;;;5023809;28;20196;-60
2021/10/09 02:26:33;;;;;;;101.57;14.18;;;11.70;99.90;;;;;;5023099;28;20130;-61
2021/10/09 02:29:00;;;;;;;77.55;14.00;;;11.70;99.90;;;;;;5023506;28;20095;-61
2021/10/09 02:31:28;;;;;;;64.55;16.02;;;11.60;99.90;;;;;;5023322;28;20591;-61
2021/10/09 02:33:55;;;;;;;60.47;13.70;;;11.60;99.90;;;;;;5023783;28;20068;-60
2021/10/09 02:36:22;;;;;;;64.30;16.02;;;11.60;99.90;;;;;;5023947;28;20108;-60
2021/10/09 02:38:48;;;;;;;54.40;13.68;;;11.60;99.90;;;;;;5024429;28;20085;-60
2021/10/09 02:41:15;;;;;;;59.50;16.17;;;11.60;99.90;;;;;;5023890;28;20224;-60
2021/10/09 02:43:42;;;;;;;77.00;14.88;;;11.60;99.90;;;;;;5023445;28;20889;-60
2021/10/09 02:46:08;;;;;;;67.50;14.05;;;11.60;99.90;;;;;;5024366;28;20089;-60
2021/10/09 02:48:37;;;;;;;60.65;13.75;;;11.60;99.90;;;;;;5022928;28;20045;-60
2021/10/09 02:51:03;;;;;;;54.60;14.98;;;11.60;99.90;;;;;;5023229;28;20132;-60
2021/10/09 02:53:30;;;;;;;41.55;14.63;;;11.60;99.90;;;;;;5023951;28;20080;-60
2021/10/09 02:55:57;;;;;;;68.63;14.80;;;11.60;99.90;;;;;;5023760;28;20148;-61
2021/10/09 02:58:24;;;;;;;60.72;15.75;;;11.50;99.90;;;;;;5022855;28;20050;-60
2021/10/09 03:00:50;;;;;;;55.95;15.00;;;11.50;99.90;;;;;;5024190;28;20120;-60
2021/10/09 03:03:17;;;;;;;37.30;12.80;;;11.50;99.90;;;;;;5023954;28;20060;-60
2021/10/09 03:05:44;;;;;;;38.97;12.88;;;11.50;99.90;;;;;;5027357;28;20428;-60
2021/10/09 03:08:12;;;;;;;35.95;13.25;;;11.50;99.90;;;;;;5027281;28;20080;-60
2021/10/09 03:10:39;;;;;;;50.08;14.02;;;11.50;99.80;;;;;;5026864;28;20530;-60
2021/10/09 03:13:06;;;;;;;48.50;13.05;;;11.50;99.80;;;;;;5026466;28;20088;-60
2021/10/09 03:15:33;;;;;;;51.75;13.40;;;11.40;99.80;;;;;;5027342;28;20127;-60
2021/10/09 03:18:00;;;;;;;43.75;12.82;;;11.40;99.60;;;;;;5026495;28;20045;-60
2021/10/09 03:20:27;;;;;;;42.00;11.68;;;11.40;99.60;;;;;;5027777;28;20088;-60
2021/10/09 03:22:53;;;;;;;79.32;13.07;;;11.40;99.70;;;;;;5026736;28;20568;-61
2021/10/09 03:25:20;;;;;;;47.00;12.43;;;11.40;99.30;;;;;;5026807;28;20109;-60
2021/10/09 03:27:47;;;;;;;37.17;13.45;;;11.30;99.90;;;;;;5026932;28;20128;-60
2021/10/09 03:30:14;;;;;;;27.85;13.60;;;11.30;99.90;;;;;;5026215;28;20088;-60
2021/10/09 03:32:40;;;;;;;34.08;12.63;;;11.30;99.90;;;;;;5026143;28;20145;-60
2021/10/09 03:35:08;;;;;;;44.33;14.63;;;11.30;99.90;;;;;;5026748;28;20132;-60
2021/10/09 03:37:35;;;;;;;42.00;14.05;;;11.30;99.90;;;;;;5026647;28;20053;-60
2021/10/09 03:40:05;;;;;;;38.08;14.00;;;11.30;99.90;;;;;;5025420;28;20041;-60
2021/10/09 03:42:39;;;;;;;42.78;13.52;;;11.30;99.90;;;;;;5026838;28;20045;-60
2021/10/09 03:45:12;;;;;;;59.15;12.95;;;11.40;99.90;;;;;;5026033;28;20408;-60
2021/10/09 03:50:18;;;;;;;103.40;14.38;;;11.30;99.80;;;;;;5026792;28;20049;-60
2021/10/09 03:52:45;;;;;;;53.33;13.77;;;11.30;99.50;;;;;;5026303;28;20141;-61
2021/10/09 03:55:14;;;;;;;71.55;13.98;;;11.20;99.90;;;;;;5013288;28;20275;-60
2021/10/09 03:57:41;;;;;;;66.40;15.40;;;11.20;99.90;;;;;;5026361;28;20128;-61
2021/10/09 04:00:09;;;;;;;51.38;14.65;;;11.20;99.90;;;;;;5025991;28;20084;-61
2021/10/09 04:02:36;;;;;;;62.38;14.70;;;11.20;99.90;;;;;;5025700;28;20133;-60
2021/10/09 04:05:03;;;;;;;46.00;13.77;;;11.20;99.90;;;;;;5026520;28;20072;-60
2021/10/09 04:07:30;;;;;;;50.85;14.60;;;11.20;99.90;;;;;;5025035;28;20545;-60
2021/10/09 04:09:56;;;;;;;48.13;13.40;;;11.20;99.90;;;;;;5026147;28;20546;-60
2021/10/09 04:12:23;;;;;;;29.98;14.27;;;11.20;99.90;;;;;;5025536;28;20398;-60
2021/10/09 04:14:50;;;;;;;50.80;14.13;;;11.30;99.90;;;;;;5024908;28;20166;-60
2021/10/09 04:17:17;;;;;;;59.38;12.85;;;11.30;99.90;;;;;;5025458;28;20053;-60
2021/10/09 04:19:43;;;;;;;49.10;13.50;;;11.20;99.90;;;;;;5026335;28;20049;-60
2021/10/09 04:22:10;;;;;;;75.97;14.85;;;11.30;99.80;;;;;;5025913;28;20080;-60
2021/10/09 04:24:37;;;;;;;71.03;13.35;;;11.20;99.70;;;;;;5025718;28;20496;-60
2021/10/09 04:27:03;;;;;;;76.40;14.98;;;11.20;99.70;;;;;;5025325;28;20085;-60
2021/10/09 04:29:30;;;;;;;99.45;17.17;;;11.20;99.90;;;;;;5025078;28;20053;-60
2021/10/09 04:31:57;;;;;;;86.68;14.35;;;11.00;99.90;;;;;;5024017;28;20551;-61
2021/10/09 04:34:24;;;;;;;57.53;14.48;;;11.00;99.90;;;;;;5025031;28;20132;-60
2021/10/09 04:36:51;;;;;;;54.97;14.05;;;11.10;99.90;;;;;;5025758;28;20091;-60
2021/10/09 04:39:20;;;;;;;55.08;13.93;;;11.10;99.90;;;;;;5025932;28;20145;-60
2021/10/09 04:41:46;;;;;;;63.47;13.45;;;11.10;99.90;;;;;;5025150;28;20519;-60
2021/10/09 04:44:13;;;;;;;76.65;12.95;;;11.10;99.90;;;;;;5024658;28;20151;-60
2021/10/09 04:46:40;;;;;;;68.32;14.75;;;11.10;99.90;;;;;;5025060;28;20129;-60
2021/10/09 04:49:08;;;;;;;69.78;13.50;;;11.10;99.90;;;;;;5024533;28;20148;-61
2021/10/09 04:51:36;;;;;;;53.88;12.30;;;11.10;99.90;;;;;;5025500;28;20080;-60
2021/10/09 04:54:03;;;;;;;102.63;14.45;;;11.10;99.90;;;;;;5025279;28;20085;-60
2021/10/09 04:56:29;;;;;;;129.00;14.15;;;11.00;99.90;;;;;;5024817;28;20125;-60
2021/10/09 04:58:56;;;;;;;55.42;11.73;;;11.00;99.90;;;;;;5024636;28;20077;-60
2021/10/09 05:01:23;;;;;;;101.38;12.52;;;11.00;99.90;;;;;;5025619;28;20128;-60
2021/10/09 05:03:50;;;;;;;112.97;13.52;;;10.90;99.90;;;;;;5022057;28;20213;-60
2021/10/09 05:06:16;;;;;;;92.82;12.65;;;11.00;99.90;;;;;;5023342;28;20108;-60
2021/10/09 05:08:43;;;;;;;94.07;13.15;;;11.00;99.90;;;;;;5023580;28;20128;-60
2021/10/09 05:11:10;;;;;;;60.90;12.57;;;11.00;99.90;;;;;;5022709;28;20115;-60
2021/10/09 05:13:37;;;;;;;70.80;12.88;;;11.00;99.90;;;;;;5021672;28;20516;-60
2021/10/09 05:16:04;;;;;;;75.78;12.43;;;11.00;99.90;;;;;;5023500;28;20128;-61
2021/10/09 05:18:30;;;;;;;80.05;12.73;;;11.00;99.90;;;;;;5022353;28;20136;-60
2021/10/09 05:20:57;;;;;;;68.13;11.95;;;11.00;99.90;;;;;;5022797;28;20088;-61
2021/10/09 05:23:24;;;;;;;53.22;11.93;;;10.90;99.90;;;;;;5022546;28;20144;-61
2021/10/09 05:25:51;;;;;;;80.95;13.23;;;11.00;99.90;;;;;;5022164;28;20136;-60
2021/10/09 05:28:22;;;;;;;82.10;13.10;;;11.00;99.90;;;;;;5021459;28;20576;-60
2021/10/09 05:30:49;;;;;;;47.92;13.40;;;11.00;99.90;;;;;;5022888;28;20128;-60
2021/10/09 05:33:36;;;;;;;65.47;12.73;;;11.00;99.90;;;;;;5021442;28;20059;-60
2021/10/09 05:36:03;;;;;;;64.38;12.90;;;11.00;99.90;;;;;;5022949;28;20076;-61
2021/10/09 05:38:30;;;;;;;75.35;12.02;;;11.00;99.90;;;;;;5022651;28;20128;-60
2021/10/09 05:40:57;;;;;;;58.85;11.85;;;11.00;99.90;;;;;;5022552;28;20049;-61
2021/10/09 05:43:25;;;;;;;41.75;12.00;;;11.00;99.90;;;;;;5021342;28;20084;-60
2021/10/09 05:45:52;;;;;;;36.88;11.82;;;11.00;99.50;;;;;;5021628;28;20148;-60
2021/10/09 05:48:19;;;;;;;44.50;11.73;;;10.90;99.30;;;;;;5021423;28;20521;-60
2021/10/09 05:50:56;;;;;;;43.25;10.02;;;10.80;98.70;;;;;;5022857;28;20818;-61
2021/10/09 05:56:15;;;;;;;72.65;12.68;;;10.60;99.20;;;;;;5022243;28;20045;-60
2021/10/09 06:42:44;;;;;;;41.40;11.18;;;10.70;99.60;;;;;;5027126;28;20104;-60
2021/10/09 06:48:11;;;;;;;41.28;9.93;;;10.70;99.80;;;;;;5028801;28;20049;-60
2021/10/09 07:01:23;;;;;;;52.58;11.27;;;10.70;99.90;;;;;;5019412;28;20678;-60
2021/10/09 07:03:50;;;;;;;39.10;10.88;;;10.70;99.90;;;;;;5020932;28;20137;-60
2021/10/09 07:06:18;;;;;;;44.60;11.52;;;10.80;99.70;;;;;;5021377;28;20543;-61
2021/10/09 07:08:45;;;;;;;63.72;12.75;;;10.70;99.70;;;;;;5020561;28;20122;-60
2021/10/09 07:11:14;;;;;;;45.67;10.98;;;10.80;99.90;;;;;;5020231;28;20938;-61
2021/10/09 07:13:42;;;;;;;48.63;10.52;;;10.80;99.60;;;;;;5019903;28;20041;-61
2021/10/09 07:16:12;;;;;;;54.75;10.55;;;10.80;99.20;;;;;;5021171;28;20811;-60
2021/10/09 07:18:38;;;;;;;72.93;13.10;;;10.80;99.50;;;;;;5020302;28;20219;-60
2021/10/09 07:21:05;;;;;;;46.55;11.27;;;10.80;99.80;;;;;;5036149;28;20140;-61
2021/10/09 07:23:32;;;;;;;62.25;11.73;;;10.80;99.90;;;;;;5020049;28;20136;-61
2021/10/09 07:25:59;;;;;;;76.85;11.98;;;10.90;99.90;;;;;;5020006;28;20144;-60
2021/10/09 07:28:25;;;;;;;55.15;12.27;;;10.90;99.90;;;;;;5020349;28;20595;-60
2021/10/09 07:30:52;;;;;;;48.72;11.43;;;11.00;99.90;;;;;;5018070;28;20136;-60
2021/10/09 07:33:19;;;;;;;49.38;11.68;;;11.00;99.70;;;;;;5018800;28;20144;-61
2021/10/09 07:35:45;;;;;;;65.82;13.27;;;11.00;99.20;;;;;;5020607;28;20684;-61
2021/10/09 07:38:14;;;;;;;52.40;12.80;;;11.10;99.40;;;;;;5014622;28;20152;-60
2021/10/09 07:40:41;;;;;;;47.40;11.52;;;11.10;99.40;;;;;;5021058;28;20053;-60
2021/10/09 07:43:07;;;;;;;42.58;12.13;;;11.10;99.30;;;;;;5020306;28;20553;-60
2021/10/09 07:45:34;;;;;;;77.55;13.25;;;11.10;99.70;;;;;;5021069;28;20160;-61
2021/10/09 07:48:01;;;;;;;67.38;11.70;;;11.10;99.20;;;;;;5020797;28;20089;-60
2021/10/09 07:50:29;;;;;;;68.53;12.18;;;11.10;98.60;;;;;;5019026;28;20076;-60
2021/10/09 07:52:56;;;;;;;43.00;12.70;;;11.10;99.00;;;;;;5020782;28;20061;-60
2021/10/09 07:55:23;;;;;;;65.85;11.77;;;11.20;99.40;;;;;;5020454;28;20247;-60
2021/10/09 07:57:50;;;;;;;73.80;12.57;;;11.20;99.40;;;;;;5020984;28;20128;-61
2021/10/09 08:00:17;;;;;;;50.17;12.68;;;11.20;98.70;;;;;;5018867;28;20077;-60
2021/10/09 08:02:48;;;;;;;38.58;16.45;;;11.30;99.00;;;;;;5018886;28;20116;-61
2021/10/09 08:05:15;;;;;;;46.08;13.93;;;11.20;99.30;;;;;;5020508;28;20116;-61
2021/10/09 08:07:43;;;;;;;45.40;13.40;;;11.30;99.70;;;;;;5028079;28;20580;-61
2021/10/09 08:10:10;;;;;;;46.30;13.27;;;11.50;99.60;;;;;;5020015;28;20049;-61
2021/10/09 08:12:36;;;;;;;38.97;13.40;;;11.60;99.10;;;;;;5019913;28;20153;-60
2021/10/09 08:15:05;;;;;;;41.03;13.45;;;11.60;99.10;;;;;;5019157;28;20053;-61
2021/10/09 08:17:32;;;;;;;44.30;13.23;;;11.60;99.50;;;;;;5017640;28;20069;-60
2021/10/09 08:20:00;;;;;;;34.42;12.95;;;11.70;99.40;;;;;;5035524;28;20137;-61
2021/10/09 08:22:30;;;;;;;36.88;14.73;;;11.80;99.50;;;;;;5020118;28;20053;-61
2021/10/09 08:28:06;;;;;;;39.38;12.85;;;11.90;98.90;;;;;;5020179;28;20042;-61
2021/10/09 08:38:55;;;;;;;38.75;14.32;;;12.10;98.10;;;;;;5017975;28;20644;-61
2021/10/09 08:41:42;;;;;;;61.60;14.73;;;12.10;98.70;;;;;;5019734;28;20353;-60
2021/10/09 08:44:09;;;;;;;31.00;15.70;;;12.20;97.90;;;;;;5018306;28;20079;-61
2021/10/09 08:46:36;;;;;;;56.00;18.52;;;12.20;98.80;;;;;;5007929;28;20148;-61
2021/10/09 08:49:03;;;;;;;81.07;15.90;;;12.30;98.70;;;;;;5020324;28;20186;-61
2021/10/09 08:51:29;;;;;;;36.88;18.77;;;12.40;97.80;;;;;;5019703;28;20140;-61
2021/10/09 08:54:04;;;;;;;34.17;16.70;;;12.50;98.10;;;;;;5019020;28;20143;-61
2021/10/09 08:56:36;;;;;;;32.88;18.35;;;12.50;98.40;;;;;;5019241;28;20077;-60
2021/10/09 08:59:15;;;;;;;32.28;18.90;;;12.60;98.60;;;;;;5019108;28;20085;-60
2021/10/09 09:01:55;;;;;;;70.22;16.27;;;12.70;98.30;;;;;;5017887;28;20139;-61
2021/10/09 09:05:14;;;;;;;53.25;18.55;;;12.70;97.50;;;;;;5017421;28;20148;-60
2021/10/09 09:07:41;;;;;;;37.05;19.38;;;12.70;97.40;;;;;;5018669;28;20053;-60
2021/10/09 09:32:16;;;;;;;48.00;21.83;;;13.20;97.80;;;;;;5016977;28;20132;-60
2021/10/09 09:40:04;;;;;;;39.22;22.65;;;13.60;97.00;;;;;;5018824;28;20106;-60
2021/10/09 09:42:30;;;;;;;39.42;23.83;;;13.60;96.90;;;;;;5016872;28;20076;-60
2021/10/09 09:44:59;;;;;;;37.00;23.35;;;13.80;96.80;;;;;;5017530;28;20057;-60
2021/10/09 09:47:36;;;;;;;34.00;23.45;;;13.80;96.70;;;;;;5017236;28;20053;-60
2021/10/09 09:50:04;;;;;;;40.30;24.08;;;13.90;96.40;;;;;;5014423;28;20079;-60
2021/10/09 09:52:38;;;;;;;38.22;24.17;;;14.00;96.80;;;;;;5017216;28;20168;-59
2021/10/09 09:55:06;;;;;;;38.05;24.38;;;14.00;96.50;;;;;;5017297;28;20049;-60
2021/10/09 09:57:33;;;;;;;36.67;26.10;;;14.10;96.90;;;;;;5000534;28;20057;-60
2021/10/09 10:00:06;;;;;;;36.15;25.30;;;14.20;96.90;;;;;;5017597;28;20092;-60
2021/10/09 10:02:33;;;;;;;40.78;25.63;;;14.40;96.50;;;;;;5018308;28;20089;-60
2021/10/09 10:05:01;;;;;;;37.90;25.15;;;14.40;96.20;;;;;;5021126;28;20504;-60
2021/10/09 10:07:28;;;;;;;35.25;23.75;;;14.30;96.30;;;;;;5023896;28;20088;-60
2021/10/09 10:09:55;;;;;;;31.35;23.60;;;14.50;96.90;;;;;;5023032;28;20053;-60
2021/10/09 10:12:24;;;;;;;37.05;26.08;;;14.70;96.00;;;;;;5018761;28;20046;-60
2021/10/09 10:14:51;;;;;;;36.13;25.20;;;14.90;95.50;;;;;;5005003;28;20129;-60
2021/10/09 10:17:43;;;;;;;38.58;26.25;;;15.00;95.00;;;;;;5022335;28;20045;-60
2021/10/09 10:20:20;;;;;;;40.25;25.55;;;15.00;94.80;;;;;;5024349;28;20496;-60
2021/10/09 10:22:55;;;;;;;40.13;28.02;;;15.10;94.90;;;;;;5024032;28;20236;-60
2021/10/09 10:25:33;;;;;;;42.25;28.27;;;15.20;94.70;;;;;;5023995;28;20037;-60
2021/10/09 10:28:09;;;;;;;41.67;28.63;;;15.10;94.50;;;;;;5024029;28;20139;-60
2021/10/09 10:30:40;;;;;;;42.22;28.27;;;15.20;94.90;;;;;;5024978;28;20080;-60
2021/10/09 10:33:10;;;;;;;38.40;27.92;;;15.30;94.50;;;;;;5020259;28;20199;-60
2021/10/09 10:35:36;;;;;;;41.45;29.00;;;15.30;94.40;;;;;;5024494;28;20307;-60
2021/10/09 10:38:08;;;;;;;42.10;30.23;;;15.30;94.50;;;;;;5022711;28;20264;-60
2021/10/09 10:40:56;;;;;;;39.40;28.47;;;15.30;94.80;;;;;;5018516;28;20922;-60
2021/10/09 10:46:22;;;;;;;46.30;30.65;;;15.40;94.10;;;;;;5023687;28;20137;-59
2021/10/09 10:54:22;;;;;;;39.45;27.55;;;15.40;94.60;;;;;;5021584;28;20140;-60
2021/10/09 10:57:03;;;;;;;46.80;30.77;;;15.50;94.40;;;;;;5021342;28;20046;-60
2021/10/09 10:59:33;;;;;;;42.45;29.10;;;15.50;94.70;;;;;;5020522;28;20326;-60
2021/10/09 11:02:09;;;;;;;42.90;30.35;;;15.60;94.80;;;;;;5018888;28;20049;-60
2021/10/09 11:04:37;;;;;;;40.78;29.27;;;15.70;94.50;;;;;;5020760;28;20421;-60
2021/10/09 11:07:04;;;;;;;43.05;29.35;;;15.70;94.60;;;;;;5022455;28;20108;-61
2021/10/09 11:09:31;;;;;;;36.80;27.92;;;15.90;94.20;;;;;;5021939;28;20124;-60
2021/10/09 11:11:57;;;;;;;43.83;30.20;;;16.10;94.00;;;;;;5021229;28;20471;-60
2021/10/09 11:14:27;;;;;;;42.92;29.05;;;16.40;93.80;;;;;;5002842;28;20089;-60
2021/10/09 11:17:01;;;;;;;40.35;28.98;;;16.60;93.30;;;;;;5024358;28;20073;-60
2021/10/09 11:19:41;;;;;;;42.65;28.95;;;16.90;93.50;;;;;;5024752;28;20058;-60
2021/10/09 11:22:10;;;;;;;42.33;30.50;;;17.30;92.60;;;;;;5038741;28;20060;-61
2021/10/09 11:24:42;;;;;;;41.72;28.75;;;17.60;92.10;;;;;;5020209;28;20100;-61
2021/10/09 11:27:08;;;;;;;55.83;34.47;;;17.50;91.40;;;;;;5022725;28;20081;-60
2021/10/09 11:29:35;;;;;;;42.05;30.48;;;17.60;92.00;;;;;;5026446;28;20080;-61
2021/10/09 11:32:09;;;;;;;47.10;31.80;;;17.70;92.00;;;;;;5026989;28;20129;-61
2021/10/09 11:34:59;;;;;;;44.05;31.25;;;17.70;91.90;;;;;;5025971;28;20054;-58
2021/10/09 11:37:27;;;;;;;32.20;25.35;;;18.00;90.70;;;;;;5028165;28;20132;-59
2021/10/09 11:39:58;;;;;;;43.28;29.85;;;18.00;91.00;;;;;;5028047;28;20133;-58
2021/10/09 11:42:28;;;;;;;30.38;23.95;;;17.90;90.40;;;;;;5027617;28;20470;-61
2021/10/09 11:56:01;;;;;;;27.20;21.98;;;18.60;90.70;;;;;;5024209;28;20046;-59
2021/10/09 11:58:29;;;;;;;24.38;21.08;;;18.60;90.00;;;;;;5022287;28;20868;-59
2021/10/09 12:00:56;;;;;;;30.02;22.70;;;18.60;89.90;;;;;;5023700;28;20105;-59
2021/10/09 12:03:35;;;;;;;26.02;21.00;;;18.50;87.80;;;;;;5026203;28;20049;-59
2021/10/09 12:06:08;;;;;;;26.75;21.85;;;18.70;87.90;;;;;;5027071;28;20537;-59
2021/10/09 12:08:46;;;;;;;23.60;21.10;;;18.80;87.70;;;;;;5025112;28;20041;-59
2021/10/09 12:11:31;;;;;;;27.80;22.20;;;19.10;84.80;;;;;;5024655;28;20140;-59
2021/10/09 12:14:31;;;;;;;21.85;19.55;;;19.30;83.70;;;;;;5026721;28;20143;-59
2021/10/09 12:16:58;;;;;;;25.38;20.08;;;19.30;82.10;;;;;;5022571;28;20081;-59
2021/10/09 12:19:28;;;;;;;26.98;22.40;;;19.30;86.30;;;;;;5027132;28;20107;-59
2021/10/09 12:22:00;;;;;;;27.02;21.73;;;19.10;85.90;;;;;;5026619;28;20107;-59
2021/10/09 12:24:31;;;;;;;31.88;24.52;;;19.30;86.90;;;;;;5026762;28;20292;-60
2021/10/09 12:27:15;;;;;;;27.42;23.90;;;19.20;85.00;;;;;;5026038;28;20053;-60
2021/10/09 12:29:59;;;;;;;26.08;22.85;;;19.30;84.70;;;;;;5014898;28;20082;-60
2021/10/09 12:32:26;;;;;;;27.00;24.10;;;19.50;85.50;;;;;;5010632;28;20049;-60
2021/10/09 12:35:04;;;;;;;24.75;22.13;;;19.70;83.40;;;;;;5025520;28;20092;-59
2021/10/09 12:37:33;;;;;;;25.95;21.05;;;19.50;82.60;;;;;;5025850;28;20049;-60
2021/10/09 12:40:16;;;;;;;27.08;21.00;;;19.50;85.40;;;;;;5026798;28;20532;-59
2021/10/09 12:42:47;;;;;;;23.58;19.85;;;19.30;82.30;;;;;;5026232;28;20083;-60
2021/10/09 12:45:15;;;;;;;28.25;20.20;;;19.30;81.80;;;;;;5025909;28;20363;-60
2021/10/09 12:47:51;;;;;;;21.38;18.17;;;19.30;82.80;;;;;;5026297;28;20057;-60
2021/10/09 12:50:18;;;;;;;24.58;20.45;;;19.70;83.00;;;;;;5026241;28;20104;-60
2021/10/09 12:52:46;;;;;;;25.52;22.20;;;20.30;83.50;;;;;;5026802;28;20472;-60
2021/10/09 12:55:14;;;;;;;23.38;20.88;;;20.80;80.60;;;;;;5025934;28;20288;-60
2021/10/09 12:57:48;;;;;;;25.05;22.35;;;21.20;78.10;;;;;;5025026;28;20041;-60
2021/10/09 13:00:16;;;;;;;22.77;19.85;;;21.60;77.00;;;;;;5025817;28;20080;-60
2021/10/09 13:02:43;;;;;;;23.70;21.23;;;22.10;76.10;;;;;;5024125;28;20081;-60
2021/10/09 13:05:10;;;;;;;22.55;20.23;;;22.40;76.10;;;;;;5024098;28;20049;-61
2021/10/09 13:07:37;;;;;;;21.73;18.48;;;22.70;74.60;;;;;;5026081;28;20485;-60
2021/10/09 13:10:04;;;;;;;21.20;18.10;;;23.10;74.30;;;;;;5019974;28;20050;-60
2021/10/09 13:12:31;;;;;;;18.08;16.17;;;23.30;71.50;;;;;;5019515;28;20145;-60
2021/10/09 13:14:58;;;;;;;18.77;16.48;;;23.20;69.60;;;;;;5018574;28;20141;-60
2021/10/09 13:17:25;;;;;;;17.85;16.00;;;23.10;69.20;;;;;;5017969;28;20460;-60
2021/10/09 13:19:54;;;;;;;16.75;15.00;;;22.70;69.50;;;;;;5018488;28;20140;-60
2021/10/09 13:22:21;;;;;;;19.23;17.23;;;22.30;72.00;;;;;;5018794;28;20602;-60
2021/10/09 13:24:48;;;;;;;19.63;17.50;;;22.30;71.50;;;;;;5020213;28;20076;-60
2021/10/09 13:27:15;;;;;;;19.75;17.77;;;21.90;72.80;;;;;;5020008;28;20407;-60
2021/10/09 13:29:41;;;;;;;21.15;17.15;;;21.80;72.50;;;;;;5020099;28;20159;-60
2021/10/09 13:32:08;;;;;;;18.27;16.38;;;22.10;71.90;;;;;;5017226;28;20562;-60
2021/10/09 13:34:35;;;;;;;20.92;15.68;;;22.40;73.30;;;;;;5019334;28;20151;-61
2021/10/09 13:37:02;;;;;;;16.88;15.18;;;23.10;70.20;;;;;;5019558;28;20045;-60
2021/10/09 13:39:28;;;;;;;17.02;14.27;;;23.60;70.40;;;;;;5020551;28;20084;-60
2021/10/09 13:41:55;;;;;;;17.98;14.55;;;24.00;68.80;;;;;;5019725;28;20568;-61
2021/10/09 13:44:22;;;;;;;16.48;14.70;;;24.40;66.40;;;;;;5033681;28;20057;-60
2021/10/09 13:46:49;;;;;;;16.05;12.80;;;24.70;66.10;;;;;;5018447;28;20128;-61
2021/10/09 13:49:15;;;;;;;19.02;16.73;;;24.90;63.70;;;;;;5019025;28;20136;-60
2021/10/09 13:51:42;;;;;;;14.57;13.18;;;24.90;62.40;;;;;;5035770;28;20121;-60
2021/10/09 13:54:09;;;;;;;12.23;10.45;;;24.80;64.10;;;;;;5019985;28;20506;-60
2021/10/09 13:56:36;;;;;;;12.55;11.27;;;24.30;63.00;;;;;;5019273;28;20522;-61
2021/10/09 13:59:02;;;;;;;13.98;12.00;;;24.20;64.40;;;;;;5018553;28;20084;-61
2021/10/09 14:01:40;;;;;;;12.70;11.35;;;24.20;63.20;;;;;;5018662;28;20890;-60
2021/10/09 14:04:07;;;;;;;12.82;11.52;;;24.40;62.10;;;;;;5018265;28;20060;-61
2021/10/09 14:06:35;;;;;;;14.82;12.80;;;24.60;64.70;;;;;;5020022;28;20651;-60
2021/10/09 14:09:03;;;;;;;16.73;12.10;;;24.80;63.60;;;;;;5019014;28;20057;-60
2021/10/09 14:11:30;;;;;;;19.88;12.70;;;24.50;61.00;;;;;;5019073;28;20046;-60
2021/10/09 14:13:57;;;;;;;15.50;12.40;;;24.50;63.00;;;;;;5018184;28;20147;-60
2021/10/09 14:16:24;;;;;;;12.98;11.68;;;24.60;61.60;;;;;;5017556;28;20064;-59
2021/10/09 14:18:50;;;;;;;14.85;12.98;;;25.00;62.30;;;;;;5018638;28;20136;-60
2021/10/09 14:21:17;;;;;;;15.23;13.32;;;25.50;61.40;;;;;;5019372;28;20140;-60
2021/10/09 14:23:44;;;;;;;11.18;10.18;;;25.70;59.70;;;;;;5019207;28;20054;-60
2021/10/09 14:26:13;;;;;;;10.48;9.48;;;25.50;57.40;;;;;;5019062;28;20456;-60
2021/10/09 14:28:40;;;;;;;10.15;9.02;;;25.20;59.10;;;;;;5019329;28;20329;-60
2021/10/09 14:31:06;;;;;;;10.70;9.57;;;25.20;57.60;;;;;;5017275;28;20045;-60
2021/10/09 14:33:33;;;;;;;20.65;18.55;;;24.60;57.90;;;;;;5017688;28;20152;-60
2021/10/09 14:36:00;;;;;;;13.65;12.25;;;23.80;59.20;;;;;;5017786;28;20488;-60
2021/10/09 14:38:27;;;;;;;13.57;12.15;;;23.20;60.90;;;;;;5019498;28;20054;-59
2021/10/09 14:40:53;;;;;;;12.85;10.85;;;22.70;62.80;;;;;;5018903;28;20050;-59
2021/10/09 14:43:20;;;;;;;12.95;10.45;;;22.10;63.90;;;;;;5018301;28;20052;-58
2021/10/09 14:45:49;;;;;;;12.10;10.80;;;21.90;65.60;;;;;;5019402;28;20072;-59
2021/10/09 14:48:20;;;;;;;14.38;11.55;;;22.30;65.90;;;;;;5017833;28;20053;-59